createdAt,value
2023-03-03T00:01:16.337Z,89.10
2023-03-03T00:03:44.804Z,89.20
2023-03-03T00:06:15.280Z,89.40
2023-03-03T00:08:43.461Z,89.50
2023-03-03T00:11:11.713Z,89.70
2023-03-03T00:13:46.379Z,89.60
2023-03-03T00:16:20.962Z,89.60
2023-03-03T00:18:49.511Z,89.80
2023-03-03T00:21:31.549Z,90.00
2023-03-03T00:24:15.734Z,90.00
2023-03-03T00:26:46.808Z,90.20
2023-03-03T00:29:30.893Z,90.40
2023-03-03T00:32:13.582Z,90.70
2023-03-03T00:34:42.456Z,90.90
2023-03-03T00:37:26.203Z,91.10
2023-03-03T00:39:54.336Z,91.10
2023-03-03T00:42:23.436Z,91.10
2023-03-03T00:44:58.073Z,91.20
2023-03-03T00:47:31.460Z,91.20
2023-03-03T00:50:22.510Z,91.40
2023-03-03T00:53:11.971Z,91.40
2023-03-03T00:55:40.439Z,91.30
2023-03-03T00:58:08.863Z,91.30
2023-03-03T01:00:37.837Z,91.40
2023-03-03T01:03:07.475Z,91.70
2023-03-03T01:05:35.588Z,92.00
2023-03-03T01:08:05.932Z,91.90
2023-03-03T01:10:37.321Z,91.90
2023-03-03T01:13:06.208Z,91.90
2023-03-03T01:15:34.596Z,92.20
2023-03-03T01:18:02.890Z,92.30
2023-03-03T01:20:30.888Z,92.50
2023-03-03T01:22:58.772Z,92.70
2023-03-03T01:25:28.349Z,92.90
2023-03-03T01:27:56.247Z,92.90
2023-03-03T01:30:24.781Z,93.00
2023-03-03T01:32:53.227Z,93.00
2023-03-03T01:35:21.643Z,92.90
2023-03-03T01:37:49.677Z,93.00
2023-03-03T01:40:20.468Z,93.10
2023-03-03T01:42:50.039Z,93.20
2023-03-03T01:45:21.093Z,93.30
2023-03-03T01:47:57.689Z,93.50
2023-03-03T01:50:33.958Z,93.70
2023-03-03T01:53:05.366Z,93.90
2023-03-03T01:55:37.211Z,94.10
2023-03-03T01:58:09.633Z,94.10
2023-03-03T02:00:42.003Z,94.10
2023-03-03T02:03:10.950Z,94.10
2023-03-03T02:05:40.680Z,94.30
2023-03-03T02:08:09.905Z,94.40
2023-03-03T02:10:38.415Z,94.50
2023-03-03T02:13:08.268Z,94.70
2023-03-03T02:15:36.865Z,94.70
2023-03-03T02:18:07.341Z,94.80
2023-03-03T02:20:45.956Z,94.90
2023-03-03T02:23:22.074Z,94.80
2023-03-03T02:26:04.327Z,94.90
2023-03-03T02:28:34.792Z,95.00
2023-03-03T02:31:03.629Z,95.20
2023-03-03T02:33:31.533Z,95.30
2023-03-03T02:35:59.576Z,95.70
2023-03-03T02:38:35.008Z,96.00
2023-03-03T02:41:13.706Z,96.20
2023-03-03T02:43:50.982Z,96.50
2023-03-03T02:46:19.218Z,96.80
2023-03-03T02:48:47.277Z,96.90
2023-03-03T02:51:15.173Z,97.00
2023-03-03T02:53:43.245Z,97.20
2023-03-03T02:56:12.508Z,97.70
2023-03-03T02:58:40.431Z,97.50
2023-03-03T03:01:08.658Z,97.50
2023-03-03T03:03:36.955Z,97.50
2023-03-03T03:06:05.292Z,97.30
2023-03-03T03:08:33.151Z,97.30
2023-03-03T03:11:01.037Z,97.30
2023-03-03T03:13:30.396Z,97.30
2023-03-03T03:15:58.328Z,97.30
2023-03-03T03:18:26.454Z,97.30
2023-03-03T03:20:54.330Z,97.40
2023-03-03T03:23:22.800Z,97.60
2023-03-03T03:25:50.689Z,97.70
2023-03-03T03:28:19.797Z,97.80
2023-03-03T03:30:49.184Z,98.00
2023-03-03T03:33:17.370Z,98.10
2023-03-03T03:35:47.777Z,98.20
2023-03-03T03:38:16.070Z,98.30
2023-03-03T03:40:44.488Z,98.50
2023-03-03T03:43:12.525Z,98.40
2023-03-03T03:45:40.743Z,98.30
2023-03-03T03:48:10.485Z,98.50
2023-03-03T03:50:38.663Z,98.60
2023-03-03T03:53:06.836Z,98.70
2023-03-03T03:55:35.233Z,98.80
2023-03-03T03:58:03.175Z,99.00
2023-03-03T04:00:31.151Z,99.50
2023-03-03T04:02:59.572Z,99.30
2023-03-03T04:05:29.208Z,99.50
2023-03-03T04:07:57.127Z,99.50
2023-03-03T04:10:25.172Z,99.60
2023-03-03T04:12:53.099Z,99.70
2023-03-03T04:15:21.111Z,99.90
2023-03-03T04:17:49.111Z,99.90
2023-03-03T04:20:17.594Z,99.90
2023-03-03T04:22:46.875Z,99.90
2023-03-03T04:25:17.214Z,99.90
2023-03-03T04:27:45.682Z,99.90
2023-03-03T04:30:16.173Z,99.90
2023-03-03T04:32:44.552Z,99.90
2023-03-03T04:35:12.998Z,99.90
2023-03-03T04:37:41.224Z,99.90
2023-03-03T04:40:11.962Z,99.90
2023-03-03T04:42:40.230Z,99.90
2023-03-03T04:45:09.499Z,99.90
2023-03-03T04:47:37.551Z,99.90
2023-03-03T04:50:06.429Z,99.90
2023-03-03T04:52:34.617Z,99.90
2023-03-03T04:55:02.501Z,99.90
2023-03-03T04:57:32.190Z,99.90
2023-03-03T05:00:00.114Z,99.90
2023-03-03T05:02:28.056Z,99.90
2023-03-03T05:04:56.235Z,99.90
2023-03-03T05:07:24.689Z,99.90
2023-03-03T05:09:52.756Z,99.90
2023-03-03T05:12:21.238Z,99.90
2023-03-03T05:14:50.475Z,99.90
2023-03-03T05:17:18.829Z,99.90
2023-03-03T05:19:46.741Z,99.90
2023-03-03T05:22:14.644Z,99.90
2023-03-03T05:24:43.928Z,99.90
2023-03-03T05:27:11.882Z,99.90
2023-03-03T05:29:39.917Z,99.90
2023-03-03T05:32:09.603Z,99.90
2023-03-03T05:34:37.849Z,99.90
2023-03-03T05:37:06.779Z,99.90
2023-03-03T05:39:35.099Z,99.90
2023-03-03T05:42:03.379Z,99.90
2023-03-03T05:44:31.291Z,99.90
2023-03-03T05:46:59.485Z,99.90
2023-03-03T05:49:29.245Z,99.90
2023-03-03T05:51:57.150Z,99.90
2023-03-03T05:54:25.238Z,99.90
2023-03-03T05:56:53.272Z,99.90
2023-03-03T05:59:24.416Z,99.90
2023-03-03T06:01:52.568Z,99.90
2023-03-03T06:04:20.453Z,99.90
2023-03-03T06:06:49.722Z,99.90
2023-03-03T06:09:19.101Z,99.90
2023-03-03T06:11:46.939Z,99.90
2023-03-03T06:14:14.897Z,99.90
2023-03-03T06:16:42.881Z,99.90
2023-03-03T06:19:10.786Z,99.90
2023-03-03T06:21:38.899Z,99.90
2023-03-03T06:24:08.977Z,99.90
2023-03-03T06:26:36.962Z,99.90
2023-03-03T06:29:05.285Z,99.90
2023-03-03T06:31:33.276Z,99.90
2023-03-03T06:34:01.430Z,99.90
2023-03-03T06:36:29.335Z,99.90
2023-03-03T06:38:57.225Z,99.90
2023-03-03T06:41:26.662Z,99.90
2023-03-03T06:43:54.960Z,99.90
2023-03-03T06:46:22.865Z,99.90
2023-03-03T06:48:50.745Z,99.90
2023-03-03T06:51:28.409Z,99.90
2023-03-03T06:53:58.340Z,99.90
2023-03-03T06:56:28.588Z,99.90
2023-03-03T06:58:59.382Z,99.90
2023-03-03T07:01:28.670Z,99.90
2023-03-03T07:03:56.645Z,99.90
2023-03-03T07:06:28.102Z,99.90
2023-03-03T07:08:57.963Z,99.90
2023-03-03T07:11:27.237Z,99.90
2023-03-03T07:13:56.434Z,99.90
2023-03-03T07:16:28.316Z,99.90
2023-03-03T07:18:58.798Z,99.90
2023-03-03T07:21:32.438Z,99.90
2023-03-03T07:24:02.385Z,99.90
2023-03-03T07:26:33.632Z,99.90
2023-03-03T07:29:05.248Z,99.90
2023-03-03T07:31:37.220Z,99.90
2023-03-03T07:34:19.535Z,99.90
2023-03-03T07:36:47.684Z,99.90
2023-03-03T07:39:29.451Z,99.90
2023-03-03T07:42:10.560Z,99.90
2023-03-03T07:44:39.558Z,99.90
2023-03-03T07:47:20.392Z,99.90
2023-03-03T07:49:49.595Z,99.90
2023-03-03T07:52:26.724Z,99.90
2023-03-03T07:54:55.758Z,99.90
2023-03-03T07:57:27.867Z,99.90
2023-03-03T08:00:01.090Z,99.90
2023-03-03T08:02:42.341Z,99.90
2023-03-03T08:05:31.816Z,99.90
2023-03-03T08:08:29.328Z,99.90
2023-03-03T08:10:59.223Z,99.90
2023-03-03T08:13:38.153Z,99.90
2023-03-03T08:16:29.552Z,99.90
2023-03-03T08:19:03.222Z,99.90
2023-03-03T08:21:31.952Z,99.90
2023-03-03T08:23:59.938Z,99.90
2023-03-03T08:26:28.522Z,99.90
2023-03-03T08:28:58.184Z,99.90
2023-03-03T08:31:40.329Z,99.90
2023-03-03T08:34:09.010Z,99.90
2023-03-03T08:36:37.124Z,99.90
2023-03-03T08:39:05.999Z,99.90
2023-03-03T08:41:34.131Z,99.90
2023-03-03T08:44:03.472Z,99.50
2023-03-03T08:46:31.483Z,99.10
2023-03-03T08:48:59.461Z,98.30
2023-03-03T08:51:27.556Z,97.60
2023-03-03T08:53:55.563Z,97.00
2023-03-03T08:56:23.559Z,96.70
2023-03-03T08:59:02.202Z,96.10
2023-03-03T09:01:32.889Z,95.50
2023-03-03T09:04:01.253Z,94.80
2023-03-03T09:06:29.289Z,94.30
2023-03-03T09:08:57.565Z,94.00
2023-03-03T09:11:27.982Z,93.80
2023-03-03T09:14:03.792Z,93.40
2023-03-03T09:16:38.296Z,93.20
2023-03-03T09:19:20.751Z,93.30
2023-03-03T09:21:48.787Z,93.00
2023-03-03T09:24:25.922Z,92.60
2023-03-03T09:26:54.898Z,92.00
2023-03-03T09:29:29.171Z,91.50
2023-03-03T09:32:00.998Z,91.40
2023-03-03T09:34:40.252Z,91.10
2023-03-03T09:37:21.893Z,91.10
2023-03-03T09:39:51.886Z,90.70
2023-03-03T09:42:56.904Z,90.60
2023-03-03T09:45:48.395Z,91.00
2023-03-03T09:48:30.621Z,90.80
2023-03-03T09:51:09.078Z,90.50
2023-03-03T09:54:13.172Z,90.50
2023-03-03T09:56:45.600Z,90.40
2023-03-03T09:59:34.203Z,90.30
2023-03-03T10:02:24.062Z,90.40
2023-03-03T10:05:10.285Z,90.40
2023-03-03T10:07:51.731Z,90.50
2023-03-03T10:10:32.130Z,90.50
2023-03-03T10:13:14.127Z,90.40
2023-03-03T10:15:55.347Z,90.50
2023-03-03T10:18:33.501Z,90.10
2023-03-03T10:21:10.958Z,90.00
2023-03-03T10:23:57.666Z,89.90
2023-03-03T10:26:45.620Z,89.70
2023-03-03T10:29:30.978Z,89.60
2023-03-03T10:32:37.945Z,90.00
2023-03-03T10:35:20.696Z,90.00
2023-03-03T10:38:03.541Z,90.00
2023-03-03T10:40:37.048Z,89.20
2023-03-03T10:43:31.787Z,89.30
2023-03-03T10:46:38.281Z,88.80
2023-03-03T10:49:27.890Z,88.60
2023-03-03T10:52:16.598Z,87.70
2023-03-03T10:54:58.659Z,86.00
2023-03-03T10:57:35.542Z,85.50
2023-03-03T11:00:20.828Z,83.90
2023-03-03T11:03:05.151Z,81.10
2023-03-03T11:05:41.166Z,79.00
2023-03-03T11:08:15.121Z,71.70
2023-03-03T11:10:56.406Z,64.80
2023-03-03T11:13:32.521Z,56.00
2023-03-03T11:16:12.291Z,52.20
2023-03-03T11:18:53.570Z,48.30
2023-03-03T11:21:27.794Z,46.50
2023-03-03T11:24:13.466Z,45.80
2023-03-03T11:27:12.342Z,46.60
2023-03-03T11:30:12.878Z,46.90
2023-03-03T11:32:50.133Z,47.50
2023-03-03T11:35:24.372Z,48.70
2023-03-03T11:38:04.544Z,49.80
2023-03-03T11:40:41.230Z,50.60
2023-03-03T11:43:26.321Z,50.90
2023-03-03T11:46:07.128Z,51.30
2023-03-03T11:48:40.786Z,51.70
2023-03-03T11:51:14.200Z,51.90
2023-03-03T11:53:52.119Z,51.80
2023-03-03T11:56:25.770Z,52.20
2023-03-03T11:59:13.377Z,51.90
2023-03-03T12:01:50.620Z,50.80
2023-03-03T12:04:23.369Z,49.70
2023-03-03T12:07:18.422Z,49.40
2023-03-03T12:09:56.280Z,48.50
2023-03-03T12:12:26.055Z,47.90
2023-03-03T12:15:20.845Z,47.50
2023-03-03T12:18:18.427Z,47.00
2023-03-03T12:20:53.912Z,46.40
2023-03-03T12:23:43.049Z,46.20
2023-03-03T12:26:17.778Z,44.60
2023-03-03T12:28:53.298Z,43.00
2023-03-03T12:31:41.634Z,42.30
2023-03-03T12:34:15.739Z,40.80
2023-03-03T12:36:55.765Z,40.50
2023-03-03T12:39:40.413Z,39.60
2023-03-03T12:42:17.131Z,38.80
2023-03-03T12:44:51.562Z,37.80
2023-03-03T12:47:27.846Z,37.30
2023-03-03T12:50:08.309Z,36.50
2023-03-03T12:52:45.653Z,37.50
2023-03-03T12:55:22.411Z,37.50
2023-03-03T12:57:56.202Z,37.50
2023-03-03T13:00:38.995Z,37.70
2023-03-03T13:03:15.595Z,37.60
2023-03-03T13:05:55.098Z,37.80
2023-03-03T13:08:32.737Z,38.80
2023-03-03T13:11:17.471Z,39.00
2023-03-03T13:13:54.063Z,39.40
2023-03-03T13:16:40.317Z,40.00
2023-03-03T13:19:15.199Z,40.30
2023-03-03T13:21:50.872Z,40.20
2023-03-03T13:24:24.690Z,39.70
2023-03-03T13:26:57.737Z,39.20
2023-03-03T13:29:31.033Z,39.20
2023-03-03T13:32:04.815Z,39.40
2023-03-03T13:34:43.233Z,39.50
2023-03-03T13:37:20.868Z,39.30
2023-03-03T13:39:58.294Z,38.90
2023-03-03T13:42:32.943Z,38.80
2023-03-03T13:45:04.613Z,40.40
2023-03-03T13:47:42.246Z,39.10
2023-03-03T13:50:23.596Z,39.30
2023-03-03T13:53:03.569Z,39.00
2023-03-03T13:55:36.499Z,39.30
2023-03-03T13:58:12.429Z,39.60
2023-03-03T14:00:49.840Z,40.00
2023-03-03T14:03:53.224Z,40.00
2023-03-03T14:06:25.044Z,40.50
2023-03-03T14:09:21.493Z,40.50
2023-03-03T14:11:57.611Z,40.80
2023-03-03T14:14:40.566Z,40.60
2023-03-03T14:17:16.345Z,40.50
2023-03-03T14:19:48.088Z,41.20
2023-03-03T14:22:24.755Z,41.20
2023-03-03T14:25:00.203Z,41.40
2023-03-03T14:27:35.076Z,41.70
2023-03-03T14:30:26.044Z,42.00
2023-03-03T14:33:01.663Z,41.90
2023-03-03T14:35:33.685Z,42.40
2023-03-03T14:38:11.514Z,42.60
2023-03-03T14:40:42.868Z,43.50
2023-03-03T14:43:23.571Z,44.30
2023-03-03T14:45:54.276Z,45.20
2023-03-03T14:48:24.119Z,45.60
2023-03-03T14:50:53.613Z,45.90
2023-03-03T14:53:35.480Z,46.50
2023-03-03T14:56:23.749Z,47.00
2023-03-03T14:58:52.634Z,47.40
2023-03-03T15:01:30.824Z,48.30
2023-03-03T15:04:03.066Z,48.70
2023-03-03T15:06:45.166Z,48.90
2023-03-03T15:09:29.736Z,49.20
2023-03-03T15:11:59.852Z,49.80
2023-03-03T15:14:33.060Z,50.40
2023-03-03T15:17:20.848Z,51.00
2023-03-03T15:19:55.778Z,51.50
2023-03-03T15:22:47.490Z,51.60
2023-03-03T15:25:43.236Z,52.00
2023-03-03T15:28:26.793Z,52.50
2023-03-03T15:31:02.426Z,52.70
2023-03-03T15:33:38.782Z,53.50
2023-03-03T15:36:17.329Z,53.30
2023-03-03T15:38:56.986Z,53.80
2023-03-03T15:41:45.414Z,54.40
2023-03-03T15:44:20.184Z,54.70
2023-03-03T15:47:09.363Z,54.90
2023-03-03T15:49:56.349Z,55.20
2023-03-03T15:52:36.635Z,55.20
2023-03-03T15:55:25.451Z,55.30
2023-03-03T15:58:11.534Z,55.20
2023-03-03T16:00:55.182Z,56.00
2023-03-03T16:03:29.660Z,56.20
2023-03-03T16:06:02.110Z,56.50
2023-03-03T16:08:40.179Z,56.50
2023-03-03T16:11:12.571Z,56.70
2023-03-03T16:13:54.322Z,56.80
2023-03-03T16:16:33.978Z,57.10
2023-03-03T16:19:14.737Z,57.10
2023-03-03T16:22:20.297Z,57.40
2023-03-03T16:25:04.070Z,57.70
2023-03-03T16:27:37.526Z,57.90
2023-03-03T16:30:24.330Z,59.00
2023-03-03T16:32:54.757Z,58.70
2023-03-03T16:35:28.502Z,58.80
2023-03-03T16:38:00.692Z,59.40
2023-03-03T16:40:32.667Z,59.90
2023-03-03T16:43:12.004Z,60.70
2023-03-03T16:45:42.857Z,61.40
2023-03-03T16:48:22.066Z,61.90
2023-03-03T16:51:01.154Z,62.40
2023-03-03T16:53:51.836Z,62.70
2023-03-03T16:56:23.415Z,63.00
2023-03-03T16:59:08.589Z,64.10
2023-03-03T17:01:50.630Z,64.90
2023-03-03T17:04:33.856Z,65.90
2023-03-03T17:07:09.547Z,66.10
2023-03-03T17:10:04.684Z,65.60
2023-03-03T17:12:51.782Z,66.00
2023-03-03T17:15:39.472Z,66.80
2023-03-03T17:18:15.629Z,67.50
2023-03-03T17:20:49.406Z,68.10
2023-03-03T17:23:44.019Z,68.60
2023-03-03T17:26:26.129Z,69.10
2023-03-03T17:29:09.084Z,69.40
2023-03-03T17:31:46.235Z,69.80
2023-03-03T17:34:29.593Z,70.10
2023-03-03T17:37:06.383Z,70.70
2023-03-03T17:40:12.607Z,70.80
2023-03-03T17:42:47.588Z,71.00
2023-03-03T17:45:17.297Z,71.50
2023-03-03T17:48:19.581Z,72.10
2023-03-03T17:51:11.258Z,72.50
2023-03-03T17:54:03.162Z,73.20
2023-03-03T17:56:34.426Z,73.60
2023-03-03T17:59:37.580Z,74.10
2023-03-03T18:02:34.156Z,74.50
2023-03-03T18:05:19.451Z,74.70
2023-03-03T18:08:05.389Z,74.80
2023-03-03T18:11:04.009Z,75.20
2023-03-03T18:13:53.825Z,75.50
2023-03-03T18:16:34.090Z,75.90
2023-03-03T18:19:21.624Z,76.30
2023-03-03T18:21:55.815Z,76.60
2023-03-03T18:24:38.377Z,76.90
2023-03-03T18:27:31.540Z,76.90
2023-03-03T18:30:33.397Z,77.40
2023-03-03T18:33:10.229Z,77.80
2023-03-03T18:35:40.286Z,78.50
2023-03-03T18:38:39.198Z,79.00
2023-03-03T18:41:12.715Z,79.30
2023-03-03T18:43:59.498Z,79.60
2023-03-03T18:46:55.096Z,80.00
2023-03-03T18:50:05.150Z,80.30
2023-03-03T18:52:35.086Z,80.60
2023-03-03T18:55:19.771Z,81.00
2023-03-03T18:58:17.699Z,81.20
2023-03-03T19:00:50.124Z,81.20
2023-03-03T19:03:28.858Z,81.40
2023-03-03T19:05:59.954Z,81.60
2023-03-03T19:08:29.739Z,81.70
2023-03-03T19:11:02.197Z,82.00
2023-03-03T19:13:42.239Z,82.30
2023-03-03T19:16:12.771Z,82.50
2023-03-03T19:19:02.947Z,83.40
2023-03-03T19:21:36.976Z,83.60
2023-03-03T19:24:06.895Z,83.10
2023-03-03T19:27:13.977Z,83.50
2023-03-03T19:30:12.088Z,83.70
2023-03-03T19:33:22.352Z,84.40
2023-03-03T19:36:02.946Z,85.00
2023-03-03T19:38:38.669Z,85.30
2023-03-03T19:41:22.941Z,85.70
2023-03-03T19:44:02.119Z,85.90
2023-03-03T19:46:47.501Z,86.00
2023-03-03T19:49:29.244Z,86.30
2023-03-03T19:52:05.031Z,87.20
2023-03-03T19:54:57.657Z,87.50
2023-03-03T19:57:38.434Z,86.70
2023-03-03T20:00:15.165Z,86.90
2023-03-03T20:02:55.152Z,87.20
2023-03-03T20:05:32.405Z,87.90
2023-03-03T20:08:06.284Z,88.70
2023-03-03T20:10:44.000Z,89.70
2023-03-03T20:13:29.678Z,89.30
2023-03-03T20:16:08.524Z,89.30
2023-03-03T20:18:59.055Z,89.30
2023-03-03T20:21:35.597Z,89.40
2023-03-03T20:24:22.418Z,89.50
2023-03-03T20:26:58.031Z,89.90
2023-03-03T20:29:56.399Z,89.90
2023-03-03T20:32:33.674Z,89.80
2023-03-03T20:35:14.042Z,90.10
2023-03-03T20:37:50.507Z,90.20
2023-03-03T20:40:30.787Z,90.50
2023-03-03T20:43:06.602Z,90.40
2023-03-03T20:45:48.450Z,90.30
2023-03-03T20:48:29.758Z,90.40
2023-03-03T20:51:06.574Z,90.50
2023-03-03T20:53:45.482Z,90.70
2023-03-03T20:56:19.047Z,90.90
2023-03-03T20:58:59.439Z,91.40
2023-03-03T21:01:35.481Z,91.40
2023-03-03T21:04:19.685Z,91.40
2023-03-03T21:06:48.358Z,91.40
2023-03-03T21:09:29.809Z,91.40
2023-03-03T21:11:59.015Z,91.50
2023-03-03T21:14:28.360Z,91.70
2023-03-03T21:16:58.502Z,91.80
2023-03-03T21:19:30.783Z,91.60
2023-03-03T21:22:01.982Z,91.50
2023-03-03T21:24:50.436Z,91.90
2023-03-03T21:27:30.285Z,91.80
2023-03-03T21:30:08.740Z,91.90
2023-03-03T21:32:39.370Z,91.90
2023-03-03T21:35:09.850Z,92.00
2023-03-03T21:37:47.410Z,92.00
2023-03-03T21:40:20.758Z,92.00
2023-03-03T21:42:48.821Z,92.20
2023-03-03T21:45:20.334Z,92.30
2023-03-03T21:47:48.898Z,92.40
2023-03-03T21:50:17.653Z,92.50
2023-03-03T21:52:45.688Z,92.50
2023-03-03T21:55:13.764Z,92.70
2023-03-03T21:57:43.094Z,92.80
2023-03-03T22:00:12.788Z,92.80
2023-03-03T22:02:40.752Z,92.80
2023-03-03T22:05:09.224Z,92.90
2023-03-03T22:07:37.118Z,93.00
2023-03-03T22:10:07.368Z,93.10
2023-03-03T22:12:35.320Z,93.20
2023-03-03T22:15:04.978Z,93.30
2023-03-03T22:17:33.041Z,93.30
2023-03-03T22:20:00.964Z,93.30
2023-03-03T22:22:28.879Z,93.40
2023-03-03T22:24:56.752Z,93.60
2023-03-03T22:27:24.817Z,93.70
2023-03-03T22:29:52.773Z,93.70
2023-03-03T22:32:22.373Z,93.80
2023-03-03T22:34:50.300Z,93.90
2023-03-03T22:37:18.641Z,93.90
2023-03-03T22:39:46.630Z,94.10
2023-03-03T22:42:14.552Z,94.40
2023-03-03T22:44:45.448Z,94.50
2023-03-03T22:47:13.776Z,94.70
2023-03-03T22:49:43.007Z,94.60
2023-03-03T22:52:10.917Z,94.50
2023-03-03T22:54:39.079Z,94.40
2023-03-03T22:57:07.048Z,94.30
2023-03-03T22:59:34.983Z,94.30
2023-03-03T23:02:03.043Z,94.40
2023-03-03T23:04:32.969Z,94.40
2023-03-03T23:07:02.621Z,94.30
2023-03-03T23:09:30.456Z,94.40
2023-03-03T23:11:58.373Z,94.50
2023-03-03T23:14:26.409Z,94.40
2023-03-03T23:16:54.313Z,94.60
2023-03-03T23:19:22.177Z,94.90
2023-03-03T23:21:50.307Z,95.00
2023-03-03T23:24:19.575Z,95.00
2023-03-03T23:26:47.533Z,95.10
2023-03-03T23:29:15.458Z,95.40
2023-03-03T23:31:43.416Z,95.30
2023-03-03T23:34:11.356Z,95.30
2023-03-03T23:36:39.346Z,95.70
2023-03-03T23:39:07.282Z,95.40
2023-03-03T23:41:38.514Z,95.50
2023-03-03T23:44:06.787Z,95.60
2023-03-03T23:46:34.720Z,95.70
2023-03-03T23:49:02.596Z,95.90
2023-03-03T23:51:30.597Z,95.90
2023-03-03T23:53:58.505Z,95.90
2023-03-03T23:56:26.466Z,95.70
2023-03-03T23:58:55.778Z,95.90
